sensor_id;sensor_type;location;lat;lon;timestamp;P1;durP1;ratioP1;P2;durP2;ratioP2
74967;SDS011;63523;51.880;12.630;2024-02-21T00:00:11;10.77;;;1.10;;
74967;SDS011;63523;51.880;12.630;2024-02-21T00:02:37;9.07;;;1.40;;
74967;SDS011;63523;51.880;12.630;2024-02-21T00:05:02;10.00;;;1.48;;
74967;SDS011;63523;51.880;12.630;2024-02-21T00:07:27;7.03;;;1.13;;
74967;SDS011;63523;51.880;12.630;2024-02-21T00:09:53;8.83;;;1.63;;
74967;SDS011;63523;51.880;12.630;2024-02-21T00:12:18;11.63;;;1.47;;
74967;SDS011;63523;51.880;12.630;2024-02-21T00:14:43;14.23;;;1.93;;
74967;SDS011;63523;51.880;12.630;2024-02-21T00:17:08;10.20;;;1.30;;
74967;SDS011;63523;51.880;12.630;2024-02-21T00:19:34;8.23;;;1.50;;
74967;SDS011;63523;51.880;12.630;2024-02-21T00:21:59;8.02;;;1.55;;
74967;SDS011;63523;51.880;12.630;2024-02-21T00:24:25;9.70;;;1.17;;
74967;SDS011;63523;51.880;12.630;2024-02-21T00:26:50;9.73;;;1.27;;
74967;SDS011;63523;51.880;12.630;2024-02-21T00:29:15;10.33;;;1.47;;
74967;SDS011;63523;51.880;12.630;2024-02-21T00:31:41;11.10;;;1.37;;
74967;SDS011;63523;51.880;12.630;2024-02-21T00:34:06;6.90;;;1.40;;
74967;SDS011;63523;51.880;12.630;2024-02-21T00:36:31;7.03;;;1.20;;
74967;SDS011;63523;51.880;12.630;2024-02-21T00:38:57;12.30;;;1.73;;
74967;SDS011;63523;51.880;12.630;2024-02-21T00:41:22;9.80;;;1.87;;
74967;SDS011;63523;51.880;12.630;2024-02-21T00:43:47;10.03;;;1.30;;
74967;SDS011;63523;51.880;12.630;2024-02-21T00:46:15;8.85;;;1.23;;
74967;SDS011;63523;51.880;12.630;2024-02-21T00:48:40;10.43;;;1.30;;
74967;SDS011;63523;51.880;12.630;2024-02-21T00:51:05;10.27;;;1.50;;
74967;SDS011;63523;51.880;12.630;2024-02-21T00:53:30;7.50;;;1.20;;
74967;SDS011;63523;51.880;12.630;2024-02-21T00:55:55;7.53;;;1.20;;
74967;SDS011;63523;51.880;12.630;2024-02-21T00:58:21;8.23;;;1.20;;
74967;SDS011;63523;51.880;12.630;2024-02-21T01:00:47;10.25;;;1.73;;
74967;SDS011;63523;51.880;12.630;2024-02-21T01:03:12;7.17;;;1.13;;
74967;SDS011;63523;51.880;12.630;2024-02-21T01:05:37;10.97;;;1.67;;
74967;SDS011;63523;51.880;12.630;2024-02-21T01:08:03;10.80;;;1.60;;
74967;SDS011;63523;51.880;12.630;2024-02-21T01:10:28;7.23;;;1.73;;
74967;SDS011;63523;51.880;12.630;2024-02-21T01:12:54;5.40;;;1.17;;
74967;SDS011;63523;51.880;12.630;2024-02-21T01:15:19;5.93;;;1.10;;
74967;SDS011;63523;51.880;12.630;2024-02-21T01:17:44;11.27;;;1.87;;
74967;SDS011;63523;51.880;12.630;2024-02-21T01:20:10;10.23;;;1.60;;
74967;SDS011;63523;51.880;12.630;2024-02-21T01:22:35;7.23;;;1.30;;
74967;SDS011;63523;51.880;12.630;2024-02-21T01:25:01;7.90;;;1.50;;
74967;SDS011;63523;51.880;12.630;2024-02-21T01:27:26;8.67;;;1.37;;
74967;SDS011;63523;51.880;12.630;2024-02-21T01:29:51;8.35;;;1.67;;
74967;SDS011;63523;51.880;12.630;2024-02-21T01:32:17;8.77;;;1.33;;
74967;SDS011;63523;51.880;12.630;2024-02-21T01:34:42;10.43;;;1.47;;
74967;SDS011;63523;51.880;12.630;2024-02-21T01:37:08;9.15;;;1.50;;
74967;SDS011;63523;51.880;12.630;2024-02-21T01:39:34;9.20;;;1.43;;
74967;SDS011;63523;51.880;12.630;2024-02-21T01:41:59;7.67;;;1.10;;
74967;SDS011;63523;51.880;12.630;2024-02-21T01:44:24;8.40;;;1.40;;
74967;SDS011;63523;51.880;12.630;2024-02-21T01:46:50;10.30;;;2.08;;
74967;SDS011;63523;51.880;12.630;2024-02-21T01:49:16;9.70;;;1.57;;
74967;SDS011;63523;51.880;12.630;2024-02-21T01:51:42;11.13;;;1.80;;
74967;SDS011;63523;51.880;12.630;2024-02-21T01:54:07;9.83;;;1.43;;
74967;SDS011;63523;51.880;12.630;2024-02-21T01:56:35;10.05;;;1.30;;
74967;SDS011;63523;51.880;12.630;2024-02-21T01:59:00;6.80;;;1.40;;
74967;SDS011;63523;51.880;12.630;2024-02-21T02:01:25;9.77;;;1.90;;
74967;SDS011;63523;51.880;12.630;2024-02-21T02:03:51;8.43;;;1.42;;
74967;SDS011;63523;51.880;12.630;2024-02-21T02:06:17;7.47;;;1.27;;
74967;SDS011;63523;51.880;12.630;2024-02-21T02:08:43;9.00;;;1.60;;
74967;SDS011;63523;51.880;12.630;2024-02-21T02:11:08;6.87;;;1.43;;
74967;SDS011;63523;51.880;12.630;2024-02-21T02:13:34;10.70;;;1.50;;
74967;SDS011;63523;51.880;12.630;2024-02-21T02:15:59;9.37;;;1.30;;
74967;SDS011;63523;51.880;12.630;2024-02-21T02:18:24;8.77;;;1.73;;
74967;SDS011;63523;51.880;12.630;2024-02-21T02:20:49;6.80;;;1.20;;
74967;SDS011;63523;51.880;12.630;2024-02-21T02:23:20;7.17;;;1.00;;
74967;SDS011;63523;51.880;12.630;2024-02-21T02:25:45;5.82;;;1.17;;
74967;SDS011;63523;51.880;12.630;2024-02-21T02:28:14;8.52;;;2.00;;
74967;SDS011;63523;51.880;12.630;2024-02-21T02:30:39;10.37;;;2.10;;
74967;SDS011;63523;51.880;12.630;2024-02-21T02:33:05;8.90;;;1.50;;
74967;SDS011;63523;51.880;12.630;2024-02-21T02:35:31;10.37;;;1.73;;
74967;SDS011;63523;51.880;12.630;2024-02-21T02:37:56;7.40;;;1.30;;
74967;SDS011;63523;51.880;12.630;2024-02-21T02:40:22;10.27;;;2.00;;
74967;SDS011;63523;51.880;12.630;2024-02-21T02:42:48;9.37;;;1.23;;
74967;SDS011;63523;51.880;12.630;2024-02-21T02:45:14;6.80;;;1.30;;
74967;SDS011;63523;51.880;12.630;2024-02-21T02:47:40;7.85;;;1.50;;
74967;SDS011;63523;51.880;12.630;2024-02-21T02:50:06;10.13;;;1.83;;
74967;SDS011;63523;51.880;12.630;2024-02-21T02:52:32;11.88;;;1.90;;
74967;SDS011;63523;51.880;12.630;2024-02-21T02:54:57;9.33;;;1.60;;
74967;SDS011;63523;51.880;12.630;2024-02-21T02:57:23;9.43;;;1.50;;
74967;SDS011;63523;51.880;12.630;2024-02-21T02:59:48;10.07;;;1.60;;
74967;SDS011;63523;51.880;12.630;2024-02-21T03:02:14;12.85;;;1.90;;
74967;SDS011;63523;51.880;12.630;2024-02-21T03:04:39;9.37;;;1.60;;
74967;SDS011;63523;51.880;12.630;2024-02-21T03:07:05;8.37;;;1.50;;
74967;SDS011;63523;51.880;12.630;2024-02-21T03:09:30;12.20;;;2.35;;
74967;SDS011;63523;51.880;12.630;2024-02-21T03:11:56;8.37;;;1.63;;
74967;SDS011;63523;51.880;12.630;2024-02-21T03:14:27;12.90;;;2.00;;
74967;SDS011;63523;51.880;12.630;2024-02-21T03:16:53;13.05;;;1.75;;
74967;SDS011;63523;51.880;12.630;2024-02-21T03:19:18;13.63;;;2.03;;
74967;SDS011;63523;51.880;12.630;2024-02-21T03:21:43;9.40;;;1.77;;
74967;SDS011;63523;51.880;12.630;2024-02-21T03:24:08;9.00;;;2.20;;
74967;SDS011;63523;51.880;12.630;2024-02-21T03:26:33;8.77;;;1.63;;
74967;SDS011;63523;51.880;12.630;2024-02-21T03:28:59;12.33;;;1.77;;
74967;SDS011;63523;51.880;12.630;2024-02-21T03:31:24;11.73;;;1.53;;
74967;SDS011;63523;51.880;12.630;2024-02-21T03:33:49;7.50;;;1.60;;
74967;SDS011;63523;51.880;12.630;2024-02-21T03:36:15;6.87;;;1.40;;
74967;SDS011;63523;51.880;12.630;2024-02-21T03:38:40;8.50;;;1.70;;
74967;SDS011;63523;51.880;12.630;2024-02-21T03:41:06;6.88;;;1.42;;
74967;SDS011;63523;51.880;12.630;2024-02-21T03:43:31;11.17;;;1.80;;
74967;SDS011;63523;51.880;12.630;2024-02-21T03:45:56;7.20;;;1.50;;
74967;SDS011;63523;51.880;12.630;2024-02-21T03:48:21;12.60;;;2.40;;
74967;SDS011;63523;51.880;12.630;2024-02-21T03:50:47;9.70;;;1.80;;
74967;SDS011;63523;51.880;12.630;2024-02-21T03:53:12;10.20;;;2.20;;
74967;SDS011;63523;51.880;12.630;2024-02-21T03:55:37;10.03;;;1.80;;
74967;SDS011;63523;51.880;12.630;2024-02-21T03:58:03;9.37;;;1.50;;
74967;SDS011;63523;51.880;12.630;2024-02-21T04:00:28;8.77;;;1.80;;
74967;SDS011;63523;51.880;12.630;2024-02-21T04:02:53;11.10;;;2.20;;
74967;SDS011;63523;51.880;12.630;2024-02-21T04:05:18;9.63;;;1.77;;
74967;SDS011;63523;51.880;12.630;2024-02-21T04:07:44;9.93;;;2.00;;
74967;SDS011;63523;51.880;12.630;2024-02-21T04:10:09;10.87;;;2.27;;
74967;SDS011;63523;51.880;12.630;2024-02-21T04:12:34;10.50;;;1.90;;
74967;SDS011;63523;51.880;12.630;2024-02-21T04:14:59;9.47;;;1.90;;
74967;SDS011;63523;51.880;12.630;2024-02-21T04:17:25;8.17;;;1.60;;
74967;SDS011;63523;51.880;12.630;2024-02-21T04:19:50;7.90;;;1.77;;
74967;SDS011;63523;51.880;12.630;2024-02-21T04:22:26;9.77;;;1.83;;
74967;SDS011;63523;51.880;12.630;2024-02-21T04:24:51;9.63;;;2.23;;
74967;SDS011;63523;51.880;12.630;2024-02-21T04:27:16;10.30;;;1.77;;
74967;SDS011;63523;51.880;12.630;2024-02-21T04:29:41;10.47;;;1.93;;
74967;SDS011;63523;51.880;12.630;2024-02-21T04:32:06;12.83;;;1.73;;
74967;SDS011;63523;51.880;12.630;2024-02-21T04:34:33;9.43;;;1.70;;
74967;SDS011;63523;51.880;12.630;2024-02-21T04:36:58;12.90;;;2.23;;
74967;SDS011;63523;51.880;12.630;2024-02-21T04:39:23;12.50;;;2.07;;
74967;SDS011;63523;51.880;12.630;2024-02-21T04:41:48;11.20;;;2.00;;
74967;SDS011;63523;51.880;12.630;2024-02-21T04:44:14;11.97;;;1.93;;
74967;SDS011;63523;51.880;12.630;2024-02-21T04:46:41;12.43;;;2.03;;
74967;SDS011;63523;51.880;12.630;2024-02-21T04:49:07;13.83;;;2.30;;
74967;SDS011;63523;51.880;12.630;2024-02-21T04:51:32;13.93;;;2.20;;
74967;SDS011;63523;51.880;12.630;2024-02-21T04:53:58;12.07;;;1.80;;
74967;SDS011;63523;51.880;12.630;2024-02-21T04:56:23;8.50;;;2.07;;
74967;SDS011;63523;51.880;12.630;2024-02-21T04:58:48;8.67;;;1.90;;
74967;SDS011;63523;51.880;12.630;2024-02-21T05:01:13;11.80;;;2.03;;
74967;SDS011;63523;51.880;12.630;2024-02-21T05:03:39;10.23;;;2.23;;
74967;SDS011;63523;51.880;12.630;2024-02-21T05:06:04;11.43;;;2.27;;
74967;SDS011;63523;51.880;12.630;2024-02-21T05:08:29;7.07;;;2.00;;
74967;SDS011;63523;51.880;12.630;2024-02-21T05:10:54;10.60;;;2.13;;
74967;SDS011;63523;51.880;12.630;2024-02-21T05:13:20;11.17;;;2.70;;
74967;SDS011;63523;51.880;12.630;2024-02-21T05:15:45;7.33;;;1.90;;
74967;SDS011;63523;51.880;12.630;2024-02-21T05:18:10;12.67;;;2.43;;
74967;SDS011;63523;51.880;12.630;2024-02-21T05:20:35;5.47;;;1.40;;
74967;SDS011;63523;51.880;12.630;2024-02-21T05:23:01;8.17;;;2.10;;
74967;SDS011;63523;51.880;12.630;2024-02-21T05:25:26;7.43;;;1.70;;
74967;SDS011;63523;51.880;12.630;2024-02-21T05:27:51;10.07;;;1.90;;
74967;SDS011;63523;51.880;12.630;2024-02-21T05:30:18;12.45;;;1.95;;
74967;SDS011;63523;51.880;12.630;2024-02-21T05:32:43;9.93;;;1.70;;
74967;SDS011;63523;51.880;12.630;2024-02-21T05:35:09;8.90;;;1.70;;
74967;SDS011;63523;51.880;12.630;2024-02-21T05:37:34;9.30;;;1.63;;
74967;SDS011;63523;51.880;12.630;2024-02-21T05:39:59;10.63;;;1.77;;
74967;SDS011;63523;51.880;12.630;2024-02-21T05:42:25;9.87;;;2.00;;
74967;SDS011;63523;51.880;12.630;2024-02-21T05:44:50;9.53;;;2.30;;
74967;SDS011;63523;51.880;12.630;2024-02-21T05:47:15;9.53;;;2.00;;
74967;SDS011;63523;51.880;12.630;2024-02-21T05:49:40;11.32;;;2.45;;
74967;SDS011;63523;51.880;12.630;2024-02-21T05:52:06;8.30;;;2.17;;
74967;SDS011;63523;51.880;12.630;2024-02-21T05:54:31;12.27;;;2.80;;
74967;SDS011;63523;51.880;12.630;2024-02-21T05:56:57;8.73;;;2.67;;
74967;SDS011;63523;51.880;12.630;2024-02-21T05:59:22;12.43;;;3.10;;
74967;SDS011;63523;51.880;12.630;2024-02-21T06:01:54;13.37;;;3.17;;
74967;SDS011;63523;51.880;12.630;2024-02-21T06:04:22;10.15;;;3.80;;
74967;SDS011;63523;51.880;12.630;2024-02-21T06:06:47;11.30;;;2.60;;
74967;SDS011;63523;51.880;12.630;2024-02-21T06:09:13;10.53;;;2.13;;
74967;SDS011;63523;51.880;12.630;2024-02-21T06:11:38;10.67;;;2.23;;
74967;SDS011;63523;51.880;12.630;2024-02-21T06:14:03;12.53;;;2.10;;
74967;SDS011;63523;51.880;12.630;2024-02-21T06:16:28;7.30;;;1.87;;
74967;SDS011;63523;51.880;12.630;2024-02-21T06:18:54;13.50;;;2.27;;
74967;SDS011;63523;51.880;12.630;2024-02-21T06:21:19;8.23;;;1.90;;
74967;SDS011;63523;51.880;12.630;2024-02-21T06:23:44;8.47;;;1.93;;
74967;SDS011;63523;51.880;12.630;2024-02-21T06:26:09;9.37;;;2.37;;
74967;SDS011;63523;51.880;12.630;2024-02-21T06:28:35;8.93;;;1.97;;
74967;SDS011;63523;51.880;12.630;2024-02-21T06:31:00;11.40;;;2.10;;
74967;SDS011;63523;51.880;12.630;2024-02-21T06:33:25;8.80;;;2.50;;
74967;SDS011;63523;51.880;12.630;2024-02-21T06:35:51;15.47;;;3.13;;
74967;SDS011;63523;51.880;12.630;2024-02-21T06:38:18;16.95;;;4.72;;
74967;SDS011;63523;51.880;12.630;2024-02-21T06:40:44;12.88;;;3.47;;
74967;SDS011;63523;51.880;12.630;2024-02-21T06:43:14;11.27;;;3.53;;
74967;SDS011;63523;51.880;12.630;2024-02-21T06:45:39;14.30;;;6.10;;
74967;SDS011;63523;51.880;12.630;2024-02-21T06:48:04;13.53;;;3.37;;
74967;SDS011;63523;51.880;12.630;2024-02-21T06:50:30;10.40;;;2.60;;
74967;SDS011;63523;51.880;12.630;2024-02-21T06:52:55;11.93;;;2.90;;
74967;SDS011;63523;51.880;12.630;2024-02-21T06:55:20;12.90;;;3.20;;
74967;SDS011;63523;51.880;12.630;2024-02-21T06:57:46;11.90;;;2.40;;
74967;SDS011;63523;51.880;12.630;2024-02-21T07:00:13;12.00;;;2.83;;
74967;SDS011;63523;51.880;12.630;2024-02-21T07:02:38;11.77;;;3.23;;
74967;SDS011;63523;51.880;12.630;2024-02-21T07:05:04;9.47;;;2.80;;
74967;SDS011;63523;51.880;12.630;2024-02-21T07:07:30;17.10;;;2.65;;
74967;SDS011;63523;51.880;12.630;2024-02-21T07:09:55;9.97;;;2.70;;
74967;SDS011;63523;51.880;12.630;2024-02-21T07:12:20;12.97;;;2.93;;
74967;SDS011;63523;51.880;12.630;2024-02-21T07:14:46;10.97;;;3.40;;
74967;SDS011;63523;51.880;12.630;2024-02-21T07:17:11;14.10;;;3.00;;
74967;SDS011;63523;51.880;12.630;2024-02-21T07:19:36;9.33;;;2.43;;
74967;SDS011;63523;51.880;12.630;2024-02-21T07:22:01;13.83;;;2.67;;
74967;SDS011;63523;51.880;12.630;2024-02-21T07:24:27;14.50;;;3.27;;
74967;SDS011;63523;51.880;12.630;2024-02-21T07:26:52;10.10;;;3.03;;
74967;SDS011;63523;51.880;12.630;2024-02-21T07:29:18;12.73;;;2.90;;
74967;SDS011;63523;51.880;12.630;2024-02-21T07:31:44;10.13;;;2.33;;
74967;SDS011;63523;51.880;12.630;2024-02-21T07:34:09;10.00;;;2.92;;
74967;SDS011;63523;51.880;12.630;2024-02-21T07:36:35;12.97;;;2.63;;
74967;SDS011;63523;51.880;12.630;2024-02-21T07:39:02;10.95;;;2.80;;
74967;SDS011;63523;51.880;12.630;2024-02-21T07:41:28;11.57;;;3.08;;
74967;SDS011;63523;51.880;12.630;2024-02-21T07:43:55;9.10;;;2.70;;
74967;SDS011;63523;51.880;12.630;2024-02-21T07:46:20;13.13;;;3.00;;
74967;SDS011;63523;51.880;12.630;2024-02-21T07:48:46;11.65;;;2.75;;
74967;SDS011;63523;51.880;12.630;2024-02-21T07:51:12;15.23;;;3.50;;
74967;SDS011;63523;51.880;12.630;2024-02-21T07:53:38;15.13;;;3.10;;
74967;SDS011;63523;51.880;12.630;2024-02-21T07:56:04;15.77;;;3.43;;
74967;SDS011;63523;51.880;12.630;2024-02-21T07:58:29;13.43;;;3.35;;
74967;SDS011;63523;51.880;12.630;2024-02-21T08:00:54;13.13;;;2.90;;
74967;SDS011;63523;51.880;12.630;2024-02-21T08:03:20;13.57;;;3.37;;
74967;SDS011;63523;51.880;12.630;2024-02-21T08:05:45;11.43;;;3.00;;
74967;SDS011;63523;51.880;12.630;2024-02-21T08:08:11;11.83;;;2.97;;
74967;SDS011;63523;51.880;12.630;2024-02-21T08:10:36;14.45;;;3.25;;
74967;SDS011;63523;51.880;12.630;2024-02-21T08:13:01;13.07;;;3.03;;
74967;SDS011;63523;51.880;12.630;2024-02-21T08:15:26;16.63;;;3.33;;
74967;SDS011;63523;51.880;12.630;2024-02-21T08:17:54;13.97;;;3.40;;
74967;SDS011;63523;51.880;12.630;2024-02-21T08:20:23;12.75;;;2.92;;
74967;SDS011;63523;51.880;12.630;2024-02-21T08:22:49;14.63;;;3.10;;
74967;SDS011;63523;51.880;12.630;2024-02-21T08:25:15;10.93;;;2.57;;
74967;SDS011;63523;51.880;12.630;2024-02-21T08:27:40;10.00;;;3.10;;
74967;SDS011;63523;51.880;12.630;2024-02-21T08:30:06;13.50;;;3.17;;
74967;SDS011;63523;51.880;12.630;2024-02-21T08:32:32;9.07;;;2.80;;
74967;SDS011;63523;51.880;12.630;2024-02-21T08:34:59;10.52;;;2.75;;
74967;SDS011;63523;51.880;12.630;2024-02-21T08:37:24;11.83;;;3.10;;
74967;SDS011;63523;51.880;12.630;2024-02-21T08:39:51;9.65;;;2.80;;
74967;SDS011;63523;51.880;12.630;2024-02-21T08:42:17;9.83;;;2.63;;
74967;SDS011;63523;51.880;12.630;2024-02-21T08:44:42;10.70;;;2.40;;
74967;SDS011;63523;51.880;12.630;2024-02-21T08:47:08;10.30;;;3.40;;
74967;SDS011;63523;51.880;12.630;2024-02-21T08:49:34;9.05;;;2.60;;
74967;SDS011;63523;51.880;12.630;2024-02-21T08:52:00;16.53;;;3.33;;
74967;SDS011;63523;51.880;12.630;2024-02-21T08:54:25;18.65;;;4.22;;
74967;SDS011;63523;51.880;12.630;2024-02-21T08:56:51;14.77;;;3.90;;
74967;SDS011;63523;51.880;12.630;2024-02-21T08:59:16;15.07;;;3.53;;
74967;SDS011;63523;51.880;12.630;2024-02-21T09:01:41;13.83;;;3.70;;
74967;SDS011;63523;51.880;12.630;2024-02-21T09:04:07;10.90;;;3.33;;
74967;SDS011;63523;51.880;12.630;2024-02-21T09:06:32;11.00;;;2.83;;
74967;SDS011;63523;51.880;12.630;2024-02-21T09:08:58;11.07;;;3.10;;
74967;SDS011;63523;51.880;12.630;2024-02-21T09:11:24;10.37;;;3.30;;
74967;SDS011;63523;51.880;12.630;2024-02-21T09:13:49;10.93;;;2.67;;
74967;SDS011;63523;51.880;12.630;2024-02-21T09:16:14;9.90;;;2.83;;
74967;SDS011;63523;51.880;12.630;2024-02-21T09:18:39;13.60;;;3.60;;
74967;SDS011;63523;51.880;12.630;2024-02-21T09:21:05;10.77;;;3.20;;
74967;SDS011;63523;51.880;12.630;2024-02-21T09:23:30;10.93;;;3.07;;
74967;SDS011;63523;51.880;12.630;2024-02-21T09:25:56;12.43;;;3.42;;
74967;SDS011;63523;51.880;12.630;2024-02-21T09:28:22;13.07;;;2.90;;
74967;SDS011;63523;51.880;12.630;2024-02-21T09:30:47;17.40;;;3.47;;
74967;SDS011;63523;51.880;12.630;2024-02-21T09:33:13;7.63;;;2.80;;
74967;SDS011;63523;51.880;12.630;2024-02-21T09:35:38;9.13;;;2.70;;
74967;SDS011;63523;51.880;12.630;2024-02-21T09:38:04;12.35;;;3.15;;
74967;SDS011;63523;51.880;12.630;2024-02-21T09:40:29;12.90;;;2.97;;
74967;SDS011;63523;51.880;12.630;2024-02-21T09:43:03;9.80;;;2.80;;
74967;SDS011;63523;51.880;12.630;2024-02-21T09:45:32;8.35;;;2.25;;
74967;SDS011;63523;51.880;12.630;2024-02-21T09:50:47;11.43;;;2.50;;
74967;SDS011;63523;51.880;12.630;2024-02-21T09:53:14;9.18;;;2.47;;
74967;SDS011;63523;51.880;12.630;2024-02-21T09:55:40;7.50;;;2.23;;
74967;SDS011;63523;51.880;12.630;2024-02-21T09:58:07;9.43;;;2.65;;
74967;SDS011;63523;51.880;12.630;2024-02-21T10:00:32;9.55;;;2.40;;
74967;SDS011;63523;51.880;12.630;2024-02-21T10:02:58;8.17;;;2.63;;
74967;SDS011;63523;51.880;12.630;2024-02-21T10:05:24;8.13;;;2.38;;
74967;SDS011;63523;51.880;12.630;2024-02-21T10:07:51;13.80;;;3.80;;
74967;SDS011;63523;51.880;12.630;2024-02-21T10:10:16;11.07;;;3.80;;
74967;SDS011;63523;51.880;12.630;2024-02-21T10:12:51;18.50;;;5.17;;
74967;SDS011;63523;51.880;12.630;2024-02-21T10:15:23;9.57;;;3.58;;
74967;SDS011;63523;51.880;12.630;2024-02-21T10:17:49;12.80;;;2.90;;
74967;SDS011;63523;51.880;12.630;2024-02-21T10:20:22;8.45;;;2.35;;
74967;SDS011;63523;51.880;12.630;2024-02-21T10:22:48;11.10;;;2.60;;
74967;SDS011;63523;51.880;12.630;2024-02-21T10:25:13;7.73;;;2.43;;
74967;SDS011;63523;51.880;12.630;2024-02-21T10:27:39;8.90;;;2.90;;
74967;SDS011;63523;51.880;12.630;2024-02-21T10:30:05;9.88;;;2.40;;
74967;SDS011;63523;51.880;12.630;2024-02-21T10:32:48;9.00;;;2.45;;
74967;SDS011;63523;51.880;12.630;2024-02-21T10:35:15;11.30;;;2.80;;
74967;SDS011;63523;51.880;12.630;2024-02-21T10:37:55;12.52;;;3.13;;
74967;SDS011;63523;51.880;12.630;2024-02-21T10:40:24;11.15;;;2.85;;
74967;SDS011;63523;51.880;12.630;2024-02-21T10:42:56;9.93;;;2.80;;
74967;SDS011;63523;51.880;12.630;2024-02-21T10:45:29;7.40;;;2.20;;
74967;SDS011;63523;51.880;12.630;2024-02-21T10:47:58;10.47;;;2.30;;
74967;SDS011;63523;51.880;12.630;2024-02-21T10:50:31;9.38;;;2.15;;
74967;SDS011;63523;51.880;12.630;2024-02-21T10:53:05;7.72;;;2.05;;
74967;SDS011;63523;51.880;12.630;2024-02-21T10:55:38;10.40;;;2.55;;
74967;SDS011;63523;51.880;12.630;2024-02-21T10:58:05;9.85;;;3.00;;
74967;SDS011;63523;51.880;12.630;2024-02-21T11:00:30;9.07;;;2.40;;
74967;SDS011;63523;51.880;12.630;2024-02-21T11:02:58;8.02;;;2.40;;
74967;SDS011;63523;51.880;12.630;2024-02-21T11:05:24;8.75;;;2.40;;
74967;SDS011;63523;51.880;12.630;2024-02-21T11:07:51;9.70;;;2.63;;
74967;SDS011;63523;51.880;12.630;2024-02-21T11:10:23;9.63;;;2.13;;
74967;SDS011;63523;51.880;12.630;2024-02-21T11:12:49;8.55;;;2.67;;
74967;SDS011;63523;51.880;12.630;2024-02-21T11:15:17;7.35;;;2.03;;
74967;SDS011;63523;51.880;12.630;2024-02-21T11:17:42;7.97;;;2.17;;
74967;SDS011;63523;51.880;12.630;2024-02-21T11:20:19;11.57;;;2.37;;
74967;SDS011;63523;51.880;12.630;2024-02-21T11:22:44;7.18;;;2.00;;
74967;SDS011;63523;51.880;12.630;2024-02-21T11:25:10;8.80;;;2.30;;
74967;SDS011;63523;51.880;12.630;2024-02-21T11:27:38;9.40;;;2.45;;
74967;SDS011;63523;51.880;12.630;2024-02-21T11:30:04;8.47;;;2.20;;
74967;SDS011;63523;51.880;12.630;2024-02-21T11:32:30;6.60;;;2.10;;
74967;SDS011;63523;51.880;12.630;2024-02-21T11:34:59;9.05;;;2.72;;
74967;SDS011;63523;51.880;12.630;2024-02-21T11:37:26;10.33;;;2.90;;
74967;SDS011;63523;51.880;12.630;2024-02-21T11:39:53;9.27;;;2.03;;
74967;SDS011;63523;51.880;12.630;2024-02-21T11:42:18;7.60;;;2.13;;
74967;SDS011;63523;51.880;12.630;2024-02-21T11:44:44;8.48;;;2.28;;
74967;SDS011;63523;51.880;12.630;2024-02-21T11:47:10;9.97;;;2.30;;
74967;SDS011;63523;51.880;12.630;2024-02-21T11:49:39;8.40;;;2.17;;
74967;SDS011;63523;51.880;12.630;2024-02-21T11:52:10;10.55;;;2.58;;
74967;SDS011;63523;51.880;12.630;2024-02-21T11:54:35;8.37;;;2.20;;
74967;SDS011;63523;51.880;12.630;2024-02-21T11:57:01;5.17;;;1.67;;
74967;SDS011;63523;51.880;12.630;2024-02-21T11:59:26;6.73;;;1.97;;
74967;SDS011;63523;51.880;12.630;2024-02-21T12:01:54;9.02;;;1.98;;
74967;SDS011;63523;51.880;12.630;2024-02-21T12:04:20;10.27;;;2.30;;
74967;SDS011;63523;51.880;12.630;2024-02-21T12:06:45;11.43;;;3.27;;
74967;SDS011;63523;51.880;12.630;2024-02-21T12:09:14;8.25;;;2.60;;
74967;SDS011;63523;51.880;12.630;2024-02-21T12:11:43;7.30;;;2.03;;
74967;SDS011;63523;51.880;12.630;2024-02-21T12:14:09;7.57;;;2.53;;
74967;SDS011;63523;51.880;12.630;2024-02-21T12:16:34;8.13;;;2.28;;
74967;SDS011;63523;51.880;12.630;2024-02-21T12:19:03;9.40;;;2.20;;
74967;SDS011;63523;51.880;12.630;2024-02-21T12:21:33;11.13;;;2.33;;
74967;SDS011;63523;51.880;12.630;2024-02-21T12:24:14;7.63;;;2.13;;
74967;SDS011;63523;51.880;12.630;2024-02-21T12:26:40;7.17;;;1.73;;
74967;SDS011;63523;51.880;12.630;2024-02-21T12:29:06;10.88;;;2.00;;
74967;SDS011;63523;51.880;12.630;2024-02-21T12:31:34;7.10;;;2.03;;
74967;SDS011;63523;51.880;12.630;2024-02-21T12:34:03;10.33;;;2.13;;
74967;SDS011;63523;51.880;12.630;2024-02-21T12:36:29;11.35;;;2.33;;
74967;SDS011;63523;51.880;12.630;2024-02-21T12:38:54;6.40;;;2.20;;
74967;SDS011;63523;51.880;12.630;2024-02-21T12:41:19;8.93;;;2.10;;
74967;SDS011;63523;51.880;12.630;2024-02-21T12:43:45;8.77;;;2.07;;
74967;SDS011;63523;51.880;12.630;2024-02-21T12:46:10;9.53;;;2.33;;
74967;SDS011;63523;51.880;12.630;2024-02-21T12:48:36;10.10;;;2.20;;
74967;SDS011;63523;51.880;12.630;2024-02-21T12:51:01;8.60;;;2.90;;
74967;SDS011;63523;51.880;12.630;2024-02-21T12:53:26;9.77;;;2.50;;
74967;SDS011;63523;51.880;12.630;2024-02-21T12:55:52;10.60;;;2.50;;
74967;SDS011;63523;51.880;12.630;2024-02-21T12:58:17;8.87;;;2.43;;
74967;SDS011;63523;51.880;12.630;2024-02-21T13:00:42;8.00;;;1.90;;
74967;SDS011;63523;51.880;12.630;2024-02-21T13:03:08;8.63;;;2.07;;
74967;SDS011;63523;51.880;12.630;2024-02-21T13:05:37;9.55;;;2.08;;
74967;SDS011;63523;51.880;12.630;2024-02-21T13:08:03;6.47;;;1.47;;
74967;SDS011;63523;51.880;12.630;2024-02-21T13:10:30;6.70;;;1.55;;
74967;SDS011;63523;51.880;12.630;2024-02-21T13:12:55;7.40;;;1.40;;
74967;SDS011;63523;51.880;12.630;2024-02-21T13:15:20;4.95;;;1.33;;
74967;SDS011;63523;51.880;12.630;2024-02-21T13:17:46;6.23;;;1.50;;
74967;SDS011;63523;51.880;12.630;2024-02-21T13:20:11;5.00;;;1.60;;
74967;SDS011;63523;51.880;12.630;2024-02-21T13:22:37;6.63;;;1.53;;
74967;SDS011;63523;51.880;12.630;2024-02-21T13:25:03;6.88;;;1.52;;
74967;SDS011;63523;51.880;12.630;2024-02-21T13:27:29;7.22;;;1.77;;
74967;SDS011;63523;51.880;12.630;2024-02-21T13:29:55;5.87;;;1.10;;
74967;SDS011;63523;51.880;12.630;2024-02-21T13:32:20;6.27;;;1.30;;
74967;SDS011;63523;51.880;12.630;2024-02-21T13:34:45;6.97;;;1.30;;
74967;SDS011;63523;51.880;12.630;2024-02-21T13:37:10;7.03;;;1.27;;
74967;SDS011;63523;51.880;12.630;2024-02-21T13:39:36;4.83;;;1.13;;
74967;SDS011;63523;51.880;12.630;2024-02-21T13:42:02;6.45;;;1.02;;
74967;SDS011;63523;51.880;12.630;2024-02-21T13:44:30;7.50;;;1.63;;
74967;SDS011;63523;51.880;12.630;2024-02-21T13:46:55;6.30;;;1.10;;
74967;SDS011;63523;51.880;12.630;2024-02-21T13:49:21;5.63;;;0.90;;
74967;SDS011;63523;51.880;12.630;2024-02-21T13:51:46;5.37;;;0.80;;
74967;SDS011;63523;51.880;12.630;2024-02-21T13:54:12;3.80;;;0.80;;
74967;SDS011;63523;51.880;12.630;2024-02-21T13:56:39;7.00;;;1.20;;
74967;SDS011;63523;51.880;12.630;2024-02-21T13:59:04;4.73;;;1.20;;
74967;SDS011;63523;51.880;12.630;2024-02-21T14:01:30;6.37;;;1.17;;
74967;SDS011;63523;51.880;12.630;2024-02-21T14:03:57;5.97;;;1.35;;
74967;SDS011;63523;51.880;12.630;2024-02-21T14:06:22;6.47;;;1.10;;
74967;SDS011;63523;51.880;12.630;2024-02-21T14:08:47;5.73;;;1.00;;
74967;SDS011;63523;51.880;12.630;2024-02-21T14:11:12;5.33;;;1.00;;
74967;SDS011;63523;51.880;12.630;2024-02-21T14:13:39;4.75;;;1.15;;
74967;SDS011;63523;51.880;12.630;2024-02-21T14:16:08;5.70;;;1.30;;
74967;SDS011;63523;51.880;12.630;2024-02-21T14:18:36;8.73;;;1.58;;
74967;SDS011;63523;51.880;12.630;2024-02-21T14:21:02;6.40;;;1.80;;
74967;SDS011;63523;51.880;12.630;2024-02-21T14:23:28;6.30;;;1.30;;